Terminal Aerodrome Forecast
Issued by NWS Sterling, VA

Current Version | Previous Version | Graphics & Text | Print | Product List | Glossary On
Versions: 1 2 3 4 5 6 7 8 9 10 11 12 13 14 15 16 17 18 19 20 21 22 23 24
000
FTUS41 KLWX 020523
TAFIAD
TAF
KIAD 020523Z 0206/0312 29006KT P6SM OVC045
     FM021300 28010KT P6SM SCT040
     FM021500 29012G20KT P6SM SCT040
     FM030000 28008KT P6SM SCT045=

USA.gov is the U.S. government's official web portal to all federal, state and local government web resources and services.